Time;durP1;ratioP1;P1;durP2;ratioP2;P2;SDS_P1;SDS_P2;PMS_P1;PMS_P2;Temp;Humidity;BMP_temperature;BMP_pressure;BME280_temperature;BME280_humidity;BME280_pressure;Samples;Min_cycle;Max_cycle;Signal;HPM_P1;HPM_P2
2022/11/04 00:00:36;;;;;;;81.76;66.73;;;;;;;7.56;82.76;100818.66;475758;110;922593;-76
2022/11/04 00:01:42;;;;;;;82.77;65.98;;;;;;;7.56;82.59;100821.38;475739;111;930383;-75
2022/11/04 00:02:45;;;;;;;86.43;67.85;;;;;;;7.55;82.55;100815.11;475620;111;922545;-75
2022/11/04 00:03:49;;;;;;;87.17;68.81;;;;;;;7.55;82.56;100815.11;475865;111;922973;-76
2022/11/04 00:04:52;;;;;;;83.51;66.48;;;;;;;7.56;82.42;100818.66;475785;110;922449;-75
2022/11/04 00:05:55;;;;;;;85.40;66.43;;;;;;;7.58;82.35;100818.48;475791;111;930256;-76
2022/11/04 00:06:58;;;;;;;82.89;67.64;;;;;;;7.57;82.27;100822.22;475815;109;922670;-78
2022/11/04 00:09:25;;;;;;;86.58;66.65;;;;;;;7.57;82.14;100817.64;475653;111;922506;-76
2022/11/04 00:13:12;;;;;;;80.14;64.62;;;;;;;7.55;82.13;100825.15;475604;111;922743;-77
2022/11/04 00:14:15;;;;;;;79.82;64.62;;;;;;;7.54;82.10;100815.32;475829;110;922518;-77
2022/11/04 00:18:01;;;;;;;81.99;65.02;;;;;;;7.54;82.06;100820.75;473833;112;922970;-74
2022/11/04 00:19:04;;;;;;;86.44;65.54;;;;;;;7.53;82.07;100816.34;474128;112;923349;-75
2022/11/04 00:29:42;;;;;;;80.42;61.94;;;;;;;7.52;82.00;100810.08;464935;114;923527;-76
2022/11/04 00:30:45;;;;;;;79.63;61.89;;;;;;;7.52;81.99;100801.09;462172;114;922599;-76
2022/11/04 00:33:24;;;;;;;79.56;63.46;;;;;;;7.53;81.94;100808.20;465267;114;922626;-76
2022/11/04 00:34:27;;;;;;;75.46;61.53;;;;;;;7.54;82.00;100815.32;458043;113;922992;-76
2022/11/04 00:35:30;;;;;;;79.20;62.88;;;;;;;7.55;81.88;100808.87;457438;116;922551;-76
2022/11/04 00:36:33;;;;;;;85.01;63.13;;;;;;;7.56;81.97;100810.52;457468;116;922508;-77
2022/11/04 00:37:38;;;;;;;84.47;64.11;;;;;;;7.56;81.92;100807.81;457480;116;922696;-77
2022/11/04 00:38:47;;;;;;;79.72;61.80;;;;;;;7.56;81.91;100802.38;457307;116;922874;-76
2022/11/04 00:40:21;;;;;;;83.78;65.35;;;;;;;7.58;81.79;100811.19;457593;116;923122;-76
2022/11/04 00:41:28;;;;;;;80.31;63.58;;;;;;;7.60;81.84;100808.30;457418;116;922655;-75
2022/11/04 00:42:31;;;;;;;84.07;63.91;;;;;;;7.60;81.78;100805.58;457261;114;922581;-75
2022/11/04 00:43:34;;;;;;;71.58;54.86;;;;;;;7.59;81.68;100807.45;448079;118;922535;-76
2022/11/04 00:44:37;;;;;;;70.51;55.43;;;;;;;7.60;81.65;100813.72;453569;113;922686;-76
2022/11/04 00:45:41;;;;;;;64.92;51.86;;;;;;;7.61;81.65;100802.66;466579;113;922442;-76
2022/11/04 00:46:44;;;;;;;68.98;53.14;;;;;;;7.62;81.69;100803.50;466536;113;922807;-76
2022/11/04 00:47:47;;;;;;;65.75;50.80;;;;;;;7.62;81.60;100801.62;466621;113;922456;-76
2022/11/04 00:48:50;;;;;;;71.41;54.65;;;;;;;7.63;81.50;100805.19;466625;113;922940;-77
2022/11/04 00:49:53;;;;;;;60.76;48.20;;;;;;;7.64;81.52;100805.00;466653;113;922664;-76
2022/11/04 00:50:56;;;;;;;62.28;50.57;;;;;;;7.66;81.46;100802.11;466603;113;922572;-76
2022/11/04 00:51:59;;;;;;;61.44;49.45;;;;;;;7.67;81.40;100806.48;466544;113;922499;-76
2022/11/04 00:53:03;;;;;;;66.85;51.19;;;;;;;7.68;81.25;100802.73;466639;113;923025;-75
2022/11/04 00:54:06;;;;;;;59.78;49.25;;;;;;;7.68;81.25;100803.58;466543;113;923166;-76
2022/11/04 00:55:09;;;;;;;61.38;48.99;;;;;;;7.68;81.29;100802.73;466596;113;922537;-75
2022/11/04 00:56:13;;;;;;;58.83;46.96;;;;;;;7.68;81.17;100803.58;466538;113;922999;-75
2022/11/04 00:57:16;;;;;;;55.41;45.52;;;;;;;7.70;81.17;100804.25;466544;113;930547;-75
2022/11/04 00:58:19;;;;;;;53.59;44.37;;;;;;;7.70;81.19;100801.53;466604;113;922432;-77
2022/11/04 00:59:22;;;;;;;54.04;43.57;;;;;;;7.70;81.04;100808.83;466614;113;922715;-77
2022/11/04 01:00:25;;;;;;;55.58;45.61;;;;;;;7.71;81.03;100802.38;466607;113;922562;-76
2022/11/04 01:01:28;;;;;;;56.22;45.06;;;;;;;7.71;81.06;100808.65;466561;113;922932;-76
2022/11/04 01:02:31;;;;;;;55.52;43.77;;;;;;;7.71;81.02;100803.22;466600;113;923011;-75
2022/11/04 01:03:35;;;;;;;53.84;42.73;;;;;;;7.72;80.88;100804.88;466538;113;922585;-76
2022/11/04 01:04:38;;;;;;;44.21;39.53;;;;;;;7.73;80.94;100811.15;466642;113;923070;-75
2022/11/04 01:05:41;;;;;;;45.30;39.76;;;;;;;7.73;80.83;100806.56;466627;113;922811;-73
2022/11/04 01:06:44;;;;;;;43.16;38.26;;;;;;;7.73;80.80;100803.84;466653;113;922472;-76
2022/11/04 01:07:47;;;;;;;42.73;37.72;;;;;;;7.74;80.74;100810.97;466671;113;922459;-76
2022/11/04 01:08:59;;;;;;;41.53;37.14;;;;;;;7.74;80.75;100812.84;466655;113;922423;-76
2022/11/04 01:10:02;;;;;;;41.43;36.95;;;;;;;7.74;80.83;100802.83;466424;113;922460;-76
2022/11/04 01:11:07;;;;;;;46.91;38.27;;;;;;;7.75;80.78;100809.94;466574;113;922908;-76
2022/11/04 01:12:10;;;;;;;43.67;37.02;;;;;;;7.76;80.75;100808.91;466455;113;922943;-75
2022/11/04 01:13:13;;;;;;;43.68;38.21;;;;;;;7.75;80.65;100809.94;457285;116;922712;-76
2022/11/04 01:14:16;;;;;;;46.66;39.08;;;;;;;7.76;80.60;100806.20;457641;113;922975;-76
2022/11/04 01:15:20;;;;;;;45.03;36.59;;;;;;;7.76;80.53;100816.21;466594;113;922895;-75
2022/11/04 01:16:24;;;;;;;39.21;34.99;;;;;;;7.77;80.54;100804.33;466129;113;923098;-75
2022/11/04 01:17:27;;;;;;;41.32;36.50;;;;;;;7.76;80.54;100806.20;465403;114;922811;-75
2022/11/04 01:18:30;;;;;;;44.72;37.11;;;;;;;7.77;80.48;100805.17;465411;114;923165;-75
2022/11/04 01:19:34;;;;;;;44.36;37.33;;;;;;;7.78;80.54;100805.98;465344;114;930493;-76
2022/11/04 01:20:37;;;;;;;43.78;37.44;;;;;;;7.78;80.41;100795.97;465377;114;930522;-76
2022/11/04 01:21:40;;;;;;;41.84;37.43;;;;;;;7.77;80.44;100802.45;462410;113;922633;-75
2022/11/04 01:22:43;;;;;;;41.33;36.86;;;;;;;7.77;80.37;100805.17;461324;115;923468;-75
2022/11/04 01:23:46;;;;;;;40.29;35.98;;;;;;;7.78;80.39;100800.56;461405;115;923211;-75
2022/11/04 01:24:49;;;;;;;41.64;36.03;;;;;;;7.79;80.42;100803.09;461370;115;922469;-75
2022/11/04 01:25:52;;;;;;;42.09;36.39;;;;;;;7.78;80.31;100795.97;461372;115;922766;-75
2022/11/04 01:26:55;;;;;;;41.13;35.68;;;;;;;7.77;80.32;100799.74;461370;115;922493;-75
2022/11/04 01:27:58;;;;;;;38.63;34.52;;;;;;;7.77;80.29;100802.45;461362;115;922993;-76
2022/11/04 01:29:01;;;;;;;39.06;34.80;;;;;;;7.77;80.32;100804.33;461333;115;923265;-77
2022/11/04 01:30:05;;;;;;;39.92;35.17;;;;;;;7.77;80.28;100809.76;461075;115;922936;-75
2022/11/04 01:31:11;;;;;;;39.25;35.04;;;;;;;7.77;80.35;100805.17;460776;115;930332;-76
2022/11/04 01:32:14;;;;;;;40.41;35.41;;;;;;;7.77;80.35;100807.89;460905;115;922824;-76
2022/11/04 01:33:17;;;;;;;40.40;36.02;;;;;;;7.76;80.33;100808.91;461254;115;922584;-75
2022/11/04 01:34:20;;;;;;;37.83;34.16;;;;;;;7.77;80.31;100804.33;455081;115;922965;-76
2022/11/04 01:35:23;;;;;;;39.29;35.23;;;;;;;7.76;80.24;100803.48;453361;117;923567;-77
2022/11/04 01:36:27;;;;;;;40.52;36.28;;;;;;;7.77;80.23;100805.17;453209;117;922929;-76
2022/11/04 01:37:30;;;;;;;40.97;36.32;;;;;;;7.77;80.23;100807.05;453182;117;930406;-75
2022/11/04 01:38:34;;;;;;;37.91;33.74;;;;;;;7.76;80.22;100811.62;453306;117;922994;-77
2022/11/04 01:39:37;;;;;;;39.07;34.98;;;;;;;7.77;80.27;100813.31;453406;117;923028;-76
2022/11/04 01:40:40;;;;;;;38.49;34.36;;;;;;;7.76;80.22;100806.20;459351;115;922471;-76
2022/11/04 01:41:43;;;;;;;38.25;34.31;;;;;;;7.76;80.31;100808.07;461147;115;923038;-75
2022/11/04 01:42:46;;;;;;;36.34;32.71;;;;;;;7.76;80.21;100808.91;461064;115;930090;-75
2022/11/04 01:43:55;;;;;;;37.58;33.63;;;;;;;7.75;80.23;100807.23;461123;115;930428;-76
2022/11/04 01:45:00;;;;;;;36.39;32.61;;;;;;;7.76;80.24;100808.07;463326;114;922896;-76
2022/11/04 01:46:03;;;;;;;36.51;32.57;;;;;;;7.75;80.26;100812.66;463583;114;923098;-77
2022/11/04 01:47:15;;;;;;;34.62;31.35;;;;;;;7.74;80.23;100808.25;463654;114;922345;-76
2022/11/04 01:48:28;;;;;;;34.43;30.87;;;;;;;7.75;80.24;100809.94;463531;114;922733;-76
2022/11/04 01:49:34;;;;;;;36.54;32.96;;;;;;;7.74;80.25;100810.97;463277;114;922593;-77
2022/11/04 01:50:39;;;;;;;36.36;32.55;;;;;;;7.74;80.26;100810.97;462906;114;923009;-77
2022/11/04 01:51:44;;;;;;;36.01;32.33;;;;;;;7.74;80.35;100810.97;463662;114;923028;-76
2022/11/04 01:52:54;;;;;;;35.84;32.24;;;;;;;7.75;80.37;100806.38;463440;114;923311;-76
2022/11/04 01:53:57;;;;;;;37.03;32.90;;;;;;;7.74;80.30;100804.70;463366;114;922865;-75
2022/11/04 01:55:04;;;;;;;37.78;33.32;;;;;;;7.74;80.31;100804.70;463617;114;922848;-75
2022/11/04 01:56:11;;;;;;;36.68;32.91;;;;;;;7.74;80.40;100808.25;463415;114;930394;-76
2022/11/04 01:57:21;;;;;;;35.70;31.94;;;;;;;7.73;80.33;100803.84;463460;114;922739;-75
2022/11/04 01:58:27;;;;;;;37.34;33.63;;;;;;;7.74;80.31;100808.25;463257;114;923071;-76
2022/11/04 01:59:34;;;;;;;36.06;32.23;;;;;;;7.74;80.28;100801.98;463271;114;922905;-75
2022/11/04 02:00:38;;;;;;;38.34;34.08;;;;;;;7.74;80.36;100805.54;463508;114;922839;-76
2022/11/04 02:01:42;;;;;;;36.04;32.30;;;;;;;7.74;80.26;100807.41;463533;114;922612;-76
2022/11/04 02:02:58;;;;;;;36.15;31.50;;;;;;;7.75;80.24;100806.38;463536;114;930480;-75
2022/11/04 02:05:22;;;;;;;33.88;30.71;;;;;;;7.72;80.21;100807.59;463426;114;922962;-76
2022/11/04 02:06:25;;;;;;;35.81;32.26;;;;;;;7.71;80.21;100810.52;463606;114;922896;-76
2022/11/04 02:07:30;;;;;;;35.59;32.01;;;;;;;7.71;80.22;100813.23;463638;114;922464;-76
2022/11/04 02:08:34;;;;;;;36.41;32.48;;;;;;;7.70;80.22;100806.96;463527;114;922526;-75
2022/11/04 02:09:39;;;;;;;34.34;30.75;;;;;;;7.68;80.23;100814.44;463524;114;922518;-76
2022/11/04 02:10:45;;;;;;;37.17;30.86;;;;;;;7.69;80.23;100810.70;463473;114;930503;-74
2022/11/04 02:13:09;;;;;;;35.24;31.54;;;;;;;7.67;80.24;100804.61;463479;114;922864;-76
2022/11/04 02:14:13;;;;;;;32.68;29.53;;;;;;;7.67;80.21;100806.48;463616;114;923328;-76
2022/11/04 02:15:26;;;;;;;34.81;31.62;;;;;;;7.66;80.19;100802.95;463685;114;923015;-76
2022/11/04 02:16:38;;;;;;;36.00;32.04;;;;;;;7.66;80.20;100810.25;462149;114;922548;-76
2022/11/04 02:17:59;;;;;;;34.87;31.25;;;;;;;7.66;80.31;100802.95;460993;115;922459;-75
2022/11/04 02:19:25;;;;;;;33.81;30.48;;;;;;;7.65;80.23;100809.41;461221;115;923286;-76
2022/11/04 02:20:38;;;;;;;36.69;32.96;;;;;;;7.65;80.27;100800.42;461059;115;922850;-76
2022/11/04 02:22:09;;;;;;;37.39;32.88;;;;;;;7.64;80.42;100799.58;460986;113;922584;-76
2022/11/04 02:23:15;;;;;;;34.69;31.23;;;;;;;7.63;80.38;100799.76;445747;118;923748;-76
2022/11/04 02:24:35;;;;;;;34.03;30.53;;;;;;;7.72;80.43;100799.45;482342;110;946992;-76
2022/11/04 02:26:05;;;;;;;38.13;33.79;;;;;;;7.59;80.44;100799.31;473764;112;922941;-76
2022/11/04 02:27:29;;;;;;;35.71;32.13;;;;;;;7.59;80.58;100795.75;470513;112;922390;-76
2022/11/04 02:28:45;;;;;;;36.70;32.86;;;;;;;7.58;80.52;100797.62;465196;114;922484;-76
2022/11/04 02:29:52;;;;;;;36.77;32.88;;;;;;;7.57;80.56;100805.94;464296;114;922978;-77
2022/11/04 02:31:07;;;;;;;37.16;33.41;;;;;;;7.54;80.57;100802.59;458915;115;922470;-75
2022/11/04 02:32:39;;;;;;;36.29;32.58;;;;;;;7.57;80.63;100800.52;462139;113;922500;-76
2022/11/04 02:33:55;;;;;;;37.27;33.33;;;;;;;7.55;80.53;100804.25;465935;113;922833;-75
2022/11/04 02:35:08;;;;;;;46.18;39.66;;;;;;;7.53;80.51;100795.48;469241;113;922610;-76
2022/11/04 02:36:21;;;;;;;46.04;38.02;;;;;;;7.53;80.53;100795.48;469260;113;923462;-77
2022/11/04 02:37:46;;;;;;;40.09;35.73;;;;;;;7.52;80.61;100799.22;468803;113;922941;-76
2022/11/04 02:38:58;;;;;;;39.33;34.67;;;;;;;7.52;80.54;100793.80;468847;113;922755;-75
2022/11/04 02:40:08;;;;;;;36.67;33.00;;;;;;;7.51;80.65;100797.53;468022;113;922552;-77
2022/11/04 02:41:18;;;;;;;37.34;33.56;;;;;;;7.50;80.61;100787.70;469061;113;922892;-75
2022/11/04 02:42:39;;;;;;;36.63;32.67;;;;;;;7.50;80.64;100792.28;468751;112;922592;-76
2022/11/04 02:44:05;;;;;;;36.07;32.37;;;;;;;7.50;80.68;100789.58;468637;113;922582;-75
2022/11/04 02:45:30;;;;;;;44.37;36.41;;;;;;;7.49;80.70;100788.77;457289;116;922468;-75
2022/11/04 02:46:37;;;;;;;45.78;37.49;;;;;;;7.48;80.71;100788.94;457265;116;922569;-75
2022/11/04 02:47:43;;;;;;;48.50;40.79;;;;;;;7.47;80.75;100792.68;456184;116;922585;-77
2022/11/04 02:48:52;;;;;;;47.91;40.65;;;;;;;7.47;80.85;100798.11;457263;116;923170;-75
2022/11/04 02:50:02;;;;;;;49.64;41.92;;;;;;;7.46;80.84;100797.27;456287;116;922517;-76
2022/11/04 02:51:17;;;;;;;53.03;42.81;;;;;;;7.47;80.81;100792.68;456659;116;922651;-76
2022/11/04 02:52:27;;;;;;;49.53;42.89;;;;;;;7.47;80.77;100795.39;456186;115;922582;-75
2022/11/04 02:53:44;;;;;;;49.46;43.21;;;;;;;7.59;80.85;100790.33;482383;110;947007;-75
2022/11/04 02:54:51;;;;;;;47.75;42.38;;;;;;;7.48;80.75;100799.80;473784;112;922462;-75
2022/11/04 02:55:57;;;;;;;51.30;43.81;;;;;;;7.47;80.74;100800.82;473782;112;922545;-75
2022/11/04 02:57:02;;;;;;;51.75;42.36;;;;;;;7.47;80.83;100798.95;471563;112;922856;-75
2022/11/04 02:58:12;;;;;;;51.46;43.12;;;;;;;7.47;80.70;100798.11;465361;114;922585;-75
2022/11/04 02:59:30;;;;;;;49.96;42.09;;;;;;;7.48;80.75;100797.08;465371;114;922536;-76
2022/11/04 03:00:37;;;;;;;46.34;41.57;;;;;;;7.49;80.73;100799.61;437953;120;923148;-77
2022/11/04 03:01:44;;;;;;;47.84;41.34;;;;;;;7.48;80.71;100803.35;465347;114;922499;-75
2022/11/04 03:03:01;;;;;;;45.19;40.41;;;;;;;7.50;80.73;100800.42;465353;114;922555;-75
2022/11/04 03:04:11;;;;;;;44.48;39.73;;;;;;;7.50;80.79;100800.42;465372;114;922605;-75
2022/11/04 03:05:17;;;;;;;48.80;39.18;;;;;;;7.51;80.79;100796.69;465264;113;922410;-76
2022/11/04 03:06:23;;;;;;;44.34;39.63;;;;;;;7.52;80.78;100795.66;465388;114;922932;-77
2022/11/04 03:07:30;;;;;;;46.59;39.51;;;;;;;7.51;80.75;100797.53;465301;113;922498;-76
2022/11/04 03:08:36;;;;;;;43.55;38.15;;;;;;;7.52;80.83;100790.23;465290;114;922927;-77
2022/11/04 03:09:42;;;;;;;47.77;40.29;;;;;;;7.52;80.77;100790.23;465350;114;922482;-77
2022/11/04 03:10:49;;;;;;;47.02;40.83;;;;;;;7.53;80.76;100791.92;465357;114;922717;-75
2022/11/04 03:12:00;;;;;;;42.65;38.39;;;;;;;7.54;80.83;100796.33;465166;113;922513;-76
2022/11/04 03:13:35;;;;;;;44.17;38.44;;;;;;;7.54;80.72;100790.90;465287;114;922706;-76
2022/11/04 03:14:42;;;;;;;41.80;37.53;;;;;;;7.55;80.74;100787.16;465384;114;922540;-74
2022/11/04 03:15:51;;;;;;;42.79;37.88;;;;;;;7.55;80.72;100785.26;448261;118;922706;-75
2022/11/04 03:17:00;;;;;;;42.79;37.70;;;;;;;7.55;80.75;100781.73;465240;114;922500;-77
2022/11/04 03:18:16;;;;;;;41.33;36.99;;;;;;;7.56;80.72;100783.39;465328;114;923011;-76
2022/11/04 03:19:45;;;;;;;44.61;38.58;;;;;;;7.56;80.82;100788.81;464995;114;922521;-76
2022/11/04 03:20:50;;;;;;;42.92;38.27;;;;;;;7.57;80.79;100784.23;465357;114;922884;-76
2022/11/04 03:22:02;;;;;;;47.51;41.06;;;;;;;7.57;80.80;100781.52;465340;114;922509;-76
2022/11/04 03:23:08;;;;;;;47.11;41.33;;;;;;;7.57;80.92;100787.80;463835;114;922572;-75
2022/11/04 03:24:11;;;;;;;46.21;40.24;;;;;;;7.57;80.95;100778.81;465343;114;922828;-76
2022/11/04 03:25:14;;;;;;;46.71;41.86;;;;;;;7.57;80.93;100779.66;465512;114;923152;-77
2022/11/04 03:26:30;;;;;;;45.32;40.37;;;;;;;7.58;80.80;100780.50;465452;114;922509;-77
2022/11/04 03:27:49;;;;;;;46.72;40.48;;;;;;;7.57;80.82;100779.66;465325;114;923007;-76
2022/11/04 03:29:01;;;;;;;46.39;41.36;;;;;;;7.57;80.83;100778.81;465344;114;922962;-76
2022/11/04 03:30:20;;;;;;;46.29;41.20;;;;;;;7.55;80.77;100779.83;461034;114;923107;-76
2022/11/04 03:31:27;;;;;;;47.31;41.38;;;;;;;7.54;80.75;100771.91;455980;116;922550;-76
2022/11/04 03:32:51;;;;;;;47.34;42.07;;;;;;;7.54;80.70;100769.19;463563;112;922914;-77
2022/11/04 03:33:56;;;;;;;49.18;42.34;;;;;;;7.53;80.75;100768.35;468578;112;922420;-76
2022/11/04 03:34:59;;;;;;;54.01;45.00;;;;;;;7.53;80.75;100772.94;465352;114;922474;-77
2022/11/04 03:36:03;;;;;;;57.67;48.75;;;;;;;7.52;80.84;100772.09;465442;114;923049;-76
2022/11/04 03:37:06;;;;;;;62.95;52.11;;;;;;;7.52;80.75;100771.25;465346;114;930306;-76
2022/11/04 03:38:10;;;;;;;68.79;53.71;;;;;;;7.53;80.73;100772.94;465449;114;930440;-76
2022/11/04 03:39:13;;;;;;;69.91;54.26;;;;;;;7.53;80.72;100770.22;465469;114;922950;-75
2022/11/04 03:40:19;;;;;;;71.07;55.16;;;;;;;7.52;80.70;100773.95;465400;114;930367;-76
2022/11/04 03:41:34;;;;;;;76.96;57.61;;;;;;;7.54;80.75;100774.62;465232;114;931009;-76
2022/11/04 03:42:41;;;;;;;72.99;57.98;;;;;;;7.54;80.73;100777.33;464020;113;922459;-76
2022/11/04 03:43:44;;;;;;;71.99;56.79;;;;;;;7.55;80.76;100777.12;465206;114;922963;-75
2022/11/04 03:44:56;;;;;;;68.24;54.24;;;;;;;7.56;80.75;100775.25;462979;114;923038;-75
2022/11/04 03:45:59;;;;;;;72.57;56.02;;;;;;;7.57;80.83;100776.94;461818;114;930333;-76
2022/11/04 03:47:02;;;;;;;71.36;53.50;;;;;;;7.58;80.74;100767.77;462230;114;922451;-76
2022/11/04 03:48:06;;;;;;;70.15;54.65;;;;;;;7.58;80.77;100767.77;462260;114;922923;-75
2022/11/04 03:49:11;;;;;;;67.95;52.74;;;;;;;7.58;80.63;100765.06;462120;114;923423;-78
2022/11/04 03:50:19;;;;;;;70.42;53.49;;;;;;;7.58;80.61;100767.77;462031;114;922488;-76
2022/11/04 03:51:23;;;;;;;68.44;54.84;;;;;;;7.58;80.52;100770.48;462050;114;922547;-77
2022/11/04 03:52:26;;;;;;;70.13;54.59;;;;;;;7.57;80.51;100768.80;462247;114;923050;-76
2022/11/04 03:53:30;;;;;;;63.51;50.17;;;;;;;7.56;80.54;100764.39;462133;114;922931;-76
2022/11/04 03:54:35;;;;;;;65.90;51.36;;;;;;;7.55;80.46;100765.45;462045;114;922993;-76
2022/11/04 03:56:11;;;;;;;56.89;50.56;;;;;;;7.55;80.51;100768.17;462277;114;922465;-76
2022/11/04 03:57:32;;;;;;;64.50;50.46;;;;;;;7.55;80.39;100773.59;462026;114;922727;-78
2022/11/04 03:58:42;;;;;;;68.19;52.12;;;;;;;7.52;80.39;100771.25;461747;114;922497;-75
2022/11/04 04:00:07;;;;;;;66.35;50.79;;;;;;;7.50;80.44;100765.16;461830;114;923018;-76
2022/11/04 04:01:29;;;;;;;66.01;51.19;;;;;;;7.50;80.44;100773.30;462019;114;930358;-75
2022/11/04 04:02:42;;;;;;;59.28;47.36;;;;;;;7.48;80.47;100776.22;462061;114;922456;-75
2022/11/04 04:03:54;;;;;;;61.61;47.88;;;;;;;7.47;80.48;100770.98;460106;114;922885;-76
2022/11/04 04:05:04;;;;;;;64.77;47.73;;;;;;;7.46;80.51;100775.56;461479;114;923003;-76
2022/11/04 04:06:16;;;;;;;57.93;46.30;;;;;;;7.47;80.58;100779.11;461941;114;923374;-76
2022/11/04 04:07:23;;;;;;;74.50;51.87;;;;;;;7.46;80.58;100782.85;461947;114;922490;-76
2022/11/04 04:08:41;;;;;;;70.59;53.38;;;;;;;7.47;80.51;100784.54;461599;114;922573;-76
2022/11/04 04:09:48;;;;;;;67.87;49.15;;;;;;;7.46;80.50;100789.13;461943;114;922524;-76
2022/11/04 04:11:06;;;;;;;63.30;48.05;;;;;;;7.46;80.49;100788.28;461909;114;922577;-76
2022/11/04 04:12:19;;;;;;;71.11;50.96;;;;;;;7.46;80.47;100796.42;461464;114;922550;-76
2022/11/04 04:13:42;;;;;;;68.65;49.11;;;;;;;7.45;80.50;100787.44;461330;114;922959;-76
2022/11/04 04:14:51;;;;;;;68.55;49.04;;;;;;;7.44;80.50;100793.08;461921;114;922970;-76
2022/11/04 04:16:01;;;;;;;68.45;47.81;;;;;;;7.42;80.58;100785.12;461961;114;923424;-76
2022/11/04 04:17:20;;;;;;;64.26;46.79;;;;;;;7.43;80.60;100785.96;455636;115;922608;-78
2022/11/04 04:18:26;;;;;;;66.88;48.81;;;;;;;7.43;80.60;100788.67;449609;116;922589;-75
2022/11/04 04:19:31;;;;;;;67.26;46.95;;;;;;;7.42;80.68;100786.98;464818;114;922476;-75
2022/11/04 04:20:37;;;;;;;63.79;47.79;;;;;;;7.42;80.66;100792.41;465200;114;922488;-76
2022/11/04 04:21:50;;;;;;;66.46;48.21;;;;;;;7.43;80.70;100794.94;465166;114;922627;-75
2022/11/04 04:22:56;;;;;;;62.51;44.96;;;;;;;7.43;80.70;100794.10;465038;114;922452;-76
2022/11/04 04:28:16;;;;;;;57.47;43.95;;;;;;;7.45;80.62;100800.16;465250;114;922796;-77
2022/11/04 04:29:20;;;;;;;63.02;45.27;;;;;;;7.44;80.65;100799.31;465180;114;922522;-75
2022/11/04 04:30:24;;;;;;;58.88;44.32;;;;;;;7.45;80.69;100797.44;461500;114;922507;-76
2022/11/04 04:31:49;;;;;;;60.87;44.08;;;;;;;7.45;80.76;100792.02;460431;115;930372;-76
2022/11/04 04:32:56;;;;;;;58.63;43.53;;;;;;;7.46;80.80;100805.40;457135;116;922887;-76
2022/11/04 04:34:07;;;;;;;59.87;44.04;;;;;;;7.58;80.86;100796.78;477915;110;947767;-74
2022/11/04 04:36:35;;;;;;;58.85;41.26;;;;;;;7.50;80.82;100800.42;465300;114;930307;-76
2022/11/04 04:37:40;;;;;;;53.73;41.16;;;;;;;7.51;80.82;100799.41;458009;114;922408;-76
2022/11/04 04:45:53;;;;;;;52.54;40.50;;;;;;;7.56;80.84;100807.81;461584;115;922616;-75
2022/11/04 04:46:57;;;;;;;55.64;40.68;;;;;;;7.56;81.00;100815.95;461537;115;923029;-75
2022/11/04 04:48:00;;;;;;;52.08;39.03;;;;;;;7.57;80.93;100814.08;461569;115;922847;-76
2022/11/04 04:49:06;;;;;;;54.51;40.58;;;;;;;7.57;81.00;100812.22;461667;115;923226;-75
2022/11/04 04:50:16;;;;;;;50.93;40.31;;;;;;;7.58;81.03;100805.77;461203;115;930461;-76
2022/11/04 04:51:20;;;;;;;53.47;40.35;;;;;;;7.59;81.01;100809.32;461620;115;922553;-75
2022/11/04 04:52:26;;;;;;;55.14;40.50;;;;;;;7.61;80.89;100809.98;461579;114;922793;-76
2022/11/04 04:53:29;;;;;;;54.52;40.42;;;;;;;7.63;81.01;100816.89;461562;115;923279;-76
2022/11/04 04:54:32;;;;;;;56.74;39.71;;;;;;;7.65;81.01;100819.42;461747;115;922459;-76
2022/11/04 04:55:35;;;;;;;50.78;39.50;;;;;;;7.66;80.85;100815.67;461738;115;922589;-76
2022/11/04 04:56:40;;;;;;;49.50;40.32;;;;;;;7.68;80.76;100825.30;452342;117;923105;-76
2022/11/04 04:57:43;;;;;;;54.85;38.97;;;;;;;7.69;80.66;100818.84;461756;115;922724;-76
2022/11/04 04:58:46;;;;;;;55.08;41.85;;;;;;;7.69;80.69;100829.70;461729;115;922654;-75
2022/11/04 04:59:49;;;;;;;58.77;42.25;;;;;;;7.70;80.59;100827.83;461778;114;922593;-76
2022/11/04 05:00:52;;;;;;;57.64;41.92;;;;;;;7.70;80.62;100825.95;461782;115;922878;-75
2022/11/04 05:01:55;;;;;;;54.90;42.00;;;;;;;7.70;80.67;100831.39;461740;115;923110;-75
2022/11/04 05:02:58;;;;;;;49.54;40.72;;;;;;;7.71;80.55;100833.08;461635;114;922456;-75
2022/11/04 05:04:01;;;;;;;53.79;41.92;;;;;;;7.71;80.64;100833.08;461733;115;922645;-76
2022/11/04 05:05:05;;;;;;;54.20;41.31;;;;;;;7.74;80.53;100839.98;461727;115;922682;-76
2022/11/04 05:06:10;;;;;;;49.98;39.80;;;;;;;7.72;80.50;100834.73;461590;115;922431;-77
2022/11/04 05:07:13;;;;;;;53.81;41.03;;;;;;;7.73;80.45;100836.42;461701;115;922613;-76
2022/11/04 05:08:16;;;;;;;50.84;39.91;;;;;;;7.75;80.42;100838.95;461670;115;922495;-76
2022/11/04 05:09:20;;;;;;;51.23;40.22;;;;;;;7.75;80.37;100836.23;461723;114;922495;-75
2022/11/04 05:10:23;;;;;;;49.57;40.34;;;;;;;7.74;80.41;100835.39;461652;115;923032;-76
2022/11/04 05:11:26;;;;;;;47.64;38.59;;;;;;;7.76;80.46;100840.64;461718;115;922882;-76
2022/11/04 05:13:24;;;;;;;43.28;37.46;;;;;;;7.77;80.49;100842.33;461634;115;922432;-77
2022/11/04 05:13:34;;;;;;;46.48;39.92;;;;;;;7.78;80.52;100842.11;457968;115;922715;-76
2022/11/04 05:14:38;;;;;;;43.23;37.26;;;;;;;7.79;80.55;100842.96;461747;115;922642;-75
2022/11/04 05:15:41;;;;;;;46.05;37.51;;;;;;;7.81;80.51;100840.91;461788;114;922624;-76
2022/11/04 05:16:44;;;;;;;42.08;37.49;;;;;;;7.81;80.60;100843.63;462127;114;922992;-75
2022/11/04 05:17:49;;;;;;;43.76;39.03;;;;;;;7.83;80.45;100841.54;462146;114;922543;-76
2022/11/04 05:18:52;;;;;;;43.79;36.42;;;;;;;7.84;80.49;100837.80;461836;114;923349;-75
2022/11/04 05:19:55;;;;;;;43.38;37.14;;;;;;;7.87;80.40;100842.86;462240;114;922866;-75
2022/11/04 05:21:00;;;;;;;40.59;34.61;;;;;;;7.88;80.45;100833.69;462250;114;922561;-76
2022/11/04 05:22:04;;;;;;;40.26;35.07;;;;;;;7.90;80.44;100839.75;461998;114;922993;-76
2022/11/04 05:23:08;;;;;;;39.75;35.49;;;;;;;7.92;80.39;100840.41;462281;114;923060;-75
2022/11/04 05:24:12;;;;;;;39.63;35.30;;;;;;;7.92;80.42;100833.11;462081;114;922678;-75
2022/11/04 05:25:15;;;;;;;38.40;34.44;;;;;;;7.95;80.48;100838.15;464488;113;922432;-76
2022/11/04 05:26:18;;;;;;;38.10;33.89;;;;;;;7.96;80.39;100839.83;468556;113;923043;-76
2022/11/04 05:27:22;;;;;;;37.28;33.22;;;;;;;8.01;80.27;100841.13;468328;113;922799;-76
2022/11/04 05:28:26;;;;;;;39.43;35.15;;;;;;;8.01;80.27;100841.13;468333;113;930698;-76
2022/11/04 05:29:29;;;;;;;44.01;34.87;;;;;;;8.03;80.32;100844.50;468552;113;923043;-75
2022/11/04 05:30:32;;;;;;;38.91;34.75;;;;;;;8.04;80.38;100840.77;458486;113;922503;-76
2022/11/04 05:31:35;;;;;;;41.42;34.00;;;;;;;8.04;80.28;100852.47;457881;116;922514;-76
2022/11/04 05:32:38;;;;;;;42.84;35.91;;;;;;;8.06;80.34;100857.68;465065;113;926544;-75
2022/11/04 05:33:41;;;;;;;37.96;34.01;;;;;;;8.07;80.21;100856.66;454122;115;922578;-75
2022/11/04 05:34:46;;;;;;;37.58;33.83;;;;;;;8.07;80.19;100851.22;439950;120;922548;-76
2022/11/04 05:35:49;;;;;;;37.54;33.87;;;;;;;8.08;80.26;100856.47;436961;121;922626;-76
2022/11/04 05:36:52;;;;;;;38.22;33.88;;;;;;;8.08;80.16;100855.62;431246;121;930265;-76
2022/11/04 05:37:56;;;;;;;40.52;35.68;;;;;;;8.11;80.22;100866.09;440408;120;923413;-76
2022/11/04 05:38:59;;;;;;;37.96;34.14;;;;;;;8.11;80.15;100858.79;440494;120;922654;-75
2022/11/04 05:40:01;;;;;;;39.07;34.73;;;;;;;8.12;80.18;100865.06;440531;120;922588;-75